Time;durP1;ratioP1;P1;durP2;ratioP2;P2;SDS_P1;SDS_P2;PMS_P1;PMS_P2;Temp;Humidity;BMP_temperature;BMP_pressure;BME280_temperature;BME280_humidity;BME280_pressure;Samples;Min_cycle;Max_cycle;Signal;HPM_P1;HPM_P2
2022/05/07 00:00:52;;;;;;;21.08;18.88;;;;;;;15.69;100.00;96822.59;5063491;28;20087;-59
2022/05/07 00:03:20;;;;;;;23.45;19.02;;;;;;;15.71;100.00;96825.09;5065217;28;20057;-60
2022/05/07 00:05:48;;;;;;;20.35;18.15;;;;;;;15.60;100.00;96823.56;5058527;28;20468;-59
2022/05/07 00:08:17;;;;;;;20.95;18.75;;;;;;;15.57;100.00;96821.25;5062093;28;20069;-61
2022/05/07 00:10:45;;;;;;;21.50;18.58;;;;;;;15.58;100.00;96820.22;5065963;28;20049;-60
2022/05/07 00:13:15;;;;;;;21.02;18.73;;;;;;;15.62;100.00;96819.75;5060482;28;20091;-60
2022/05/07 00:18:01;;;;;;;23.03;20.17;;;;;;;15.52;100.00;96815.56;5064673;28;20285;-58
2022/05/07 00:18:31;;;;;;;22.45;19.73;;;;;;;15.51;100.00;96824.56;5065932;28;20072;-60
2022/05/07 00:20:59;;;;;;;25.10;21.25;;;;;;;15.45;100.00;96820.75;5062264;28;20071;-58
2022/05/07 00:23:27;;;;;;;26.60;20.92;;;;;;;15.26;100.00;96824.56;5062754;28;20056;-55
2022/05/07 00:25:55;;;;;;;25.35;20.70;;;;;;;15.31;100.00;96822.25;5063374;28;20076;-59
2022/05/07 00:28:25;;;;;;;25.08;21.58;;;;;;;15.30;100.00;96817.06;5061063;28;20894;-59
2022/05/07 00:30:53;;;;;;;26.63;20.60;;;;;;;15.29;100.00;96816.25;5066789;28;20084;-58
2022/05/07 00:33:22;;;;;;;24.75;21.23;;;;;;;15.32;100.00;96807.97;5063940;28;20099;-59
2022/05/07 00:35:50;;;;;;;25.27;21.67;;;;;;;15.35;100.00;96814.78;5060953;28;20071;-59
2022/05/07 00:38:18;;;;;;;25.70;21.63;;;;;;;15.39;100.00;96806.28;5065960;28;20484;-59
2022/05/07 00:40:46;;;;;;;26.23;21.95;;;;;;;15.31;100.00;96806.31;5066467;28;20071;-59
2022/05/07 00:43:15;;;;;;;25.27;21.30;;;;;;;15.40;100.00;96799.16;5062294;28;20087;-59
2022/05/07 00:45:46;;;;;;;26.45;21.95;;;;;;;15.32;100.00;96802.63;5061901;28;20540;-59
2022/05/07 00:48:15;;;;;;;24.70;21.67;;;;;;;15.46;100.00;96789.69;5061208;28;20068;-59
2022/05/07 00:53:30;;;;;;;28.25;23.17;;;;;;;15.33;100.00;96790.19;5062625;28;20073;-58
2022/05/07 00:55:59;;;;;;;26.73;23.45;;;;;;;15.30;100.00;96786.03;5063199;28;20072;-59
2022/05/07 00:58:27;;;;;;;27.70;23.98;;;;;;;15.29;100.00;96784.38;5062609;28;20084;-58
2022/05/07 01:00:57;;;;;;;29.90;24.05;;;;;;;15.17;100.00;96783.03;5062820;28;20075;-60
2022/05/07 01:03:25;;;;;;;28.35;24.30;;;;;;;14.99;100.00;96785.84;5065198;28;20076;-59
2022/05/07 01:05:54;;;;;;;28.98;24.10;;;;;;;14.86;100.00;96788.13;5065469;28;20068;-59
2022/05/07 01:08:22;;;;;;;27.02;23.65;;;;;;;14.84;100.00;96785.66;5065985;28;20519;-59
2022/05/07 01:10:51;;;;;;;31.85;25.27;;;;;;;14.95;100.00;96780.03;5061638;28;20067;-59
2022/05/07 01:13:19;;;;;;;30.88;25.95;;;;;;;14.93;100.00;96784.69;5061662;28;20841;-60
2022/05/07 01:15:49;;;;;;;31.23;25.42;;;;;;;15.01;100.00;96783.03;5063296;28;20083;-60
2022/05/07 01:18:19;;;;;;;;;;;;;;;14.98;100.00;96778.03;5065186;28;20068;-59
2022/05/07 01:20:47;;;;;;;26.52;23.30;;;;;;;14.91;100.00;96780.53;5059475;28;19963;-59
2022/05/07 01:23:17;;;;;;;29.75;25.85;;;;;;;14.96;100.00;96778.19;5060795;28;20111;-57
2022/05/07 01:25:46;;;;;;;29.60;25.37;;;;;;;15.02;100.00;96782.03;5061763;28;20072;-55
2022/05/07 01:28:14;;;;;;;31.10;25.23;;;;;;;14.98;100.00;96775.38;5065688;28;20080;-58
2022/05/07 01:30:42;;;;;;;32.83;26.50;;;;;;;14.89;100.00;96777.19;5063058;28;20072;-59
2022/05/07 01:33:10;;;;;;;31.08;25.65;;;;;;;14.87;100.00;96780.03;5067151;28;20459;-59
2022/05/07 01:35:39;;;;;;;31.92;25.30;;;;;;;14.80;100.00;96780.84;5060593;28;20460;-58
2022/05/07 01:38:07;;;;;;;30.65;25.70;;;;;;;14.77;100.00;96775.84;5062936;28;20056;-58
2022/05/07 01:40:36;;;;;;;31.05;25.02;;;;;;;14.76;100.00;96774.16;5063932;28;20087;-57
2022/05/07 01:43:05;;;;;;;31.97;26.20;;;;;;;14.72;100.00;96777.16;5060977;28;20083;-57
2022/05/07 01:45:33;;;;;;;31.85;27.23;;;;;;;14.70;100.00;96780.97;5063255;28;20328;-59
2022/05/07 01:48:10;;;;;;;32.30;26.88;;;;;;;14.66;100.00;96782.31;5059609;28;20071;-57
2022/05/07 01:50:39;;;;;;;32.85;26.90;;;;;;;14.64;100.00;96787.75;5060030;28;20060;-59
2022/05/07 01:53:08;;;;;;;32.92;26.88;;;;;;;14.60;100.00;96778.47;5062434;28;20072;-59
2022/05/07 01:55:37;;;;;;;34.30;27.30;;;;;;;14.63;100.00;96779.97;5060344;28;20442;-59
2022/05/07 01:58:06;;;;;;;35.63;26.73;;;;;;;14.65;100.00;96772.66;5061233;28;20075;-58
2022/05/07 02:00:35;;;;;;;32.55;26.88;;;;;;;14.67;100.00;96771.50;5061475;28;20068;-58
2022/05/07 02:03:03;;;;;;;31.80;26.75;;;;;;;14.54;100.00;96775.63;5059608;28;20432;-56
2022/05/07 02:05:31;;;;;;;35.42;28.23;;;;;;;14.54;100.00;96775.63;5058279;28;20444;-60
2022/05/07 02:08:00;;;;;;;32.28;27.73;;;;;;;14.55;100.00;96774.63;5058912;28;20071;-58
2022/05/07 02:10:29;;;;;;;32.28;27.13;;;;;;;14.77;100.00;96768.72;5059047;28;20087;-59
2022/05/07 02:13:01;;;;;;;37.63;27.23;;;;;;;14.85;100.00;96767.91;5063474;28;20072;-59
2022/05/07 02:15:30;;;;;;;32.33;26.88;;;;;;;14.92;100.00;96771.56;5065888;28;20056;-57
2022/05/07 02:17:58;;;;;;;30.83;26.25;;;;;;;14.91;100.00;96768.06;5061880;28;20056;-58
2022/05/07 02:20:27;;;;;;;35.72;28.70;;;;;;;14.78;100.00;96772.19;5060829;28;20056;-59
2022/05/07 02:22:57;;;;;;;31.90;27.10;;;;;;;14.67;100.00;96762.72;5060542;28;20064;-59
2022/05/07 02:25:25;;;;;;;34.58;28.42;;;;;;;14.81;100.00;96766.56;5057999;28;20107;-57
2022/05/07 02:27:54;;;;;;;32.80;27.50;;;;;;;14.85;100.00;96766.06;5058356;28;20079;-58
2022/05/07 02:30:23;;;;;;;30.88;26.55;;;;;;;14.79;100.00;96765.88;5061372;28;20072;-59
2022/05/07 02:32:52;;;;;;;33.73;26.70;;;;;;;14.47;100.00;96772.75;5059877;28;20068;-58
2022/05/07 02:35:21;;;;;;;32.45;26.55;;;;;;;14.81;100.00;96767.38;5064865;28;20060;-58
2022/05/07 02:37:50;;;;;;;36.10;27.63;;;;;;;14.91;100.00;96760.09;5063230;28;20067;-60
2022/05/07 02:40:18;;;;;;;34.65;27.65;;;;;;;14.83;100.00;96753.94;5062852;28;20087;-59
2022/05/07 02:42:45;;;;;;;30.95;26.35;;;;;;;14.82;100.00;96757.59;5065354;28;20139;-59
2022/05/07 02:45:14;;;;;;;32.38;26.35;;;;;;;14.68;100.00;96757.25;5064711;28;20068;-59
2022/05/07 02:47:45;;;;;;;31.63;26.20;;;;;;;14.82;100.00;96758.41;5062985;28;20064;-59
2022/05/07 02:50:13;;;;;;;32.42;26.63;;;;;;;14.85;100.00;96760.75;5064422;28;20067;-56
2022/05/07 02:52:42;;;;;;;35.83;27.48;;;;;;;14.90;100.00;96754.94;5067428;28;20086;-59
2022/05/07 02:55:10;;;;;;;32.80;27.40;;;;;;;14.89;100.00;96766.56;5067654;28;20075;-60
2022/05/07 02:57:39;;;;;;;34.42;28.08;;;;;;;14.86;100.00;96759.75;5065256;28;20075;-58
2022/05/07 03:00:08;;;;;;;33.83;26.95;;;;;;;14.81;100.00;96756.78;5061640;28;20257;-58
2022/05/07 03:02:36;;;;;;;34.60;27.73;;;;;;;14.79;100.00;96752.59;5066273;28;20063;-56
2022/05/07 03:05:07;;;;;;;35.35;28.10;;;;;;;14.85;100.00;96763.41;5063431;28;20451;-57
2022/05/07 03:07:35;;;;;;;34.65;27.88;;;;;;;14.82;100.00;96758.41;5060836;28;20155;-59
2022/05/07 03:10:04;;;;;;;33.95;27.48;;;;;;;14.76;100.00;96761.72;5063433;28;20075;-59
2022/05/07 03:12:33;;;;;;;32.80;27.65;;;;;;;14.55;100.00;96766.66;5063791;28;20072;-59
2022/05/07 03:15:01;;;;;;;34.42;28.40;;;;;;;14.81;100.00;96770.03;5065976;28;20135;-57
2022/05/07 03:17:34;;;;;;;36.53;29.70;;;;;;;14.85;100.00;96765.25;5059461;28;20060;-58
2022/05/07 03:20:06;;;;;;;40.20;32.72;;;;;;;14.68;100.00;96762.53;5058655;28;20056;-58
2022/05/07 03:22:35;;;;;;;33.80;28.25;;;;;;;14.85;100.00;96765.25;5063853;28;20410;-59
2022/05/07 03:25:04;;;;;;;34.70;28.60;;;;;;;14.71;100.00;96756.91;5067516;28;20072;-59
2022/05/07 03:27:33;;;;;;;35.65;28.10;;;;;;;14.94;100.00;96759.78;5066865;28;20056;-57
2022/05/07 03:30:01;;;;;;;34.30;28.13;;;;;;;15.01;100.00;96759.97;5059618;28;20076;-58
2022/05/07 03:32:30;;;;;;;36.53;28.63;;;;;;;15.07;100.00;96758.44;5062293;28;20068;-58
2022/05/07 03:34:58;;;;;;;33.97;27.20;;;;;;;14.94;100.00;96757.13;5061251;28;20068;-58
2022/05/07 03:37:26;;;;;;;35.72;28.30;;;;;;;15.04;100.00;96759.63;5064907;28;20057;-59
2022/05/07 03:39:56;;;;;;;32.90;27.38;;;;;;;15.18;100.00;96758.13;5063242;28;20080;-58
2022/05/07 03:42:26;;;;;;;32.63;27.33;;;;;;;15.01;100.00;96756.47;5066371;28;20079;-57
2022/05/07 03:44:55;;;;;;;32.50;27.08;;;;;;;15.08;100.00;96758.28;5069326;28;20537;-59
2022/05/07 03:47:23;;;;;;;34.13;28.15;;;;;;;15.38;100.00;96756.81;5063418;28;20068;-59
2022/05/07 03:49:52;;;;;;;35.42;27.67;;;;;;;15.44;100.00;96764.09;5067006;28;20064;-60
2022/05/07 03:55:08;;;;;;;32.65;27.35;;;;;;;15.60;100.00;96757.09;5061875;28;20087;-58
2022/05/07 03:57:36;;;;;;;32.75;27.90;;;;;;;15.60;100.00;96754.44;5062506;28;20079;-58
2022/05/07 04:00:05;;;;;;;32.80;28.00;;;;;;;15.42;100.00;96754.63;5063087;28;20451;-58
2022/05/07 04:02:35;;;;;;;31.90;27.17;;;;;;;15.42;100.00;96752.81;5065817;28;20063;-59
2022/05/07 04:05:04;;;;;;;38.28;28.80;;;;;;;15.37;100.00;96755.13;5062579;28;20073;-58
2022/05/07 04:07:32;;;;;;;36.70;28.90;;;;;;;15.43;100.00;96756.28;5065879;28;20095;-57
2022/05/07 04:10:00;;;;;;;33.53;29.10;;;;;;;15.47;100.00;96751.47;5066481;28;20072;-56
2022/05/07 04:12:31;;;;;;;34.97;29.50;;;;;;;15.52;100.00;96755.28;5062474;28;20071;-59
2022/05/07 04:14:59;;;;;;;39.42;29.10;;;;;;;15.53;100.00;96758.78;5062624;28;20059;-58
2022/05/07 04:17:28;;;;;;;35.47;28.38;;;;;;;15.50;100.00;96761.78;5061546;28;20067;-58
2022/05/07 04:19:56;;;;;;;35.67;28.08;;;;;;;15.48;100.00;96761.91;5067612;28;20075;-59
2022/05/07 04:22:25;;;;;;;37.83;28.95;;;;;;;15.48;100.00;96755.78;5066442;28;20060;-59
2022/05/07 04:24:53;;;;;;;36.75;29.58;;;;;;;15.43;100.00;96765.09;5062357;28;20515;-58
2022/05/07 04:27:22;;;;;;;37.55;29.95;;;;;;;15.44;100.00;96756.09;5062310;28;20068;-58
2022/05/07 04:29:51;;;;;;;37.03;29.65;;;;;;;15.55;100.00;96756.75;5057707;28;20442;-57
2022/05/07 04:32:20;;;;;;;39.10;30.50;;;;;;;15.54;100.00;96768.41;5053977;28;20068;-55
2022/05/07 04:34:48;;;;;;;35.92;30.25;;;;;;;15.64;100.00;96763.75;5055649;28;20143;-58
2022/05/07 04:37:16;;;;;;;38.45;30.38;;;;;;;15.75;100.00;96762.59;5061532;28;20095;-57
2022/05/07 04:39:47;;;;;;;37.90;30.08;;;;;;;15.73;100.00;96764.59;5060520;28;20511;-57
2022/05/07 04:42:15;;;;;;;36.53;29.48;;;;;;;15.83;100.00;96765.25;5059534;28;20523;-59
2022/05/07 04:44:44;;;;;;;34.92;30.45;;;;;;;15.89;100.00;96765.38;5063280;28;20052;-58
2022/05/07 04:47:13;;;;;;;36.80;29.23;;;;;;;15.95;100.00;96761.22;5061615;28;20072;-59
2022/05/07 04:49:42;;;;;;;36.05;29.75;;;;;;;15.99;100.00;96767.00;5061830;28;20064;-59
2022/05/07 04:52:10;;;;;;;37.53;30.55;;;;;;;16.18;100.00;96765.81;5062591;28;20168;-58
2022/05/07 04:54:39;;;;;;;35.40;29.42;;;;;;;16.24;100.00;96765.09;5066176;28;20064;-59
2022/05/07 04:57:07;;;;;;;35.60;29.45;;;;;;;16.32;100.00;96759.75;5062138;28;20110;-58
2022/05/07 04:59:35;;;;;;;34.50;28.95;;;;;;;16.29;100.00;96766.25;5065524;28;20444;-57
2022/05/07 05:02:04;;;;;;;34.47;28.73;;;;;;;16.30;100.00;96767.91;5060633;28;20458;-56
2022/05/07 05:04:34;;;;;;;35.83;30.05;;;;;;;16.28;100.00;96769.09;5060434;28;20071;-59
2022/05/07 05:07:02;;;;;;;35.70;29.93;;;;;;;16.38;100.00;96778.53;5058412;28;20534;-59
2022/05/07 05:09:30;;;;;;;34.80;29.48;;;;;;;16.36;100.00;96780.50;5054927;28;20083;-56
2022/05/07 05:11:59;;;;;;;37.03;30.00;;;;;;;16.36;100.00;96780.50;5061581;28;20079;-53
2022/05/07 05:17:13;;;;;;;34.33;28.85;;;;;;;16.25;100.00;96780.91;5060074;28;20064;-59
2022/05/07 05:19:42;;;;;;;32.35;27.58;;;;;;;16.43;100.00;96778.00;5062518;28;20060;-58
2022/05/07 05:22:11;;;;;;;34.17;29.47;;;;;;;16.55;100.00;96783.75;5061673;28;20075;-59
2022/05/07 05:24:39;;;;;;;33.38;29.63;;;;;;;16.70;100.00;96781.19;5054044;28;20064;-59
2022/05/07 05:27:07;;;;;;;34.72;27.98;;;;;;;16.83;100.00;96786.81;5058433;28;20072;-60
2022/05/07 05:29:35;;;;;;;32.85;28.35;;;;;;;16.86;100.00;96783.78;5063632;28;20064;-59
2022/05/07 05:32:04;;;;;;;30.63;27.27;;;;;;;16.78;100.00;96783.84;5056279;28;20063;-60
2022/05/07 05:34:33;;;;;;;33.10;28.00;;;;;;;16.71;100.00;96793.50;5055798;28;20573;-57
2022/05/07 05:37:02;;;;;;;31.13;25.80;;;;;;;16.46;100.00;96782.16;5062804;28;20068;-60
2022/05/07 05:39:31;;;;;;;30.55;26.48;;;;;;;16.52;100.00;96789.44;5063468;28;20071;-58
2022/05/07 05:41:59;;;;;;;29.10;25.33;;;;;;;16.52;100.00;96792.13;5059701;28;20071;-59
2022/05/07 05:44:27;;;;;;;28.77;25.65;;;;;;;16.61;100.00;96794.53;5062756;28;20077;-58
2022/05/07 05:46:55;;;;;;;32.05;26.73;;;;;;;16.83;100.00;96797.47;5056213;28;20075;-59
2022/05/07 05:49:23;;;;;;;30.63;26.40;;;;;;;16.97;100.00;96793.22;5067354;28;20064;-59
2022/05/07 05:51:52;;;;;;;28.92;25.80;;;;;;;17.09;100.00;96786.47;5056465;28;20080;-60
2022/05/07 05:54:21;;;;;;;32.50;26.55;;;;;;;16.68;100.00;96801.84;5062931;28;20075;-59
2022/05/07 05:56:50;;;;;;;29.23;25.73;;;;;;;17.18;100.00;96795.25;5068943;28;20076;-59
2022/05/07 05:59:18;;;;;;;28.70;25.45;;;;;;;17.44;100.00;96794.84;5073689;28;20155;-59
2022/05/07 06:01:47;;;;;;;29.15;26.05;;;;;;;17.45;100.00;96796.53;5066051;28;20147;-60
2022/05/07 06:04:15;;;;;;;26.33;22.55;;;;;;;17.21;100.00;96798.38;5055781;28;20092;-59
2022/05/07 06:06:44;;;;;;;25.05;22.15;;;;;;;17.05;100.00;96801.16;5060660;28;20590;-59
2022/05/07 06:09:12;;;;;;;23.05;20.63;;;;;;;16.77;100.00;96801.66;5054658;28;20068;-59
2022/05/07 06:11:41;;;;;;;23.98;21.48;;;;;;;16.53;100.00;96807.06;5064388;28;20072;-60
2022/05/07 06:14:10;;;;;;;22.40;20.00;;;;;;;16.83;100.00;96792.97;5061901;28;20067;-61
2022/05/07 06:16:38;;;;;;;22.25;19.90;;;;;;;16.99;100.00;96799.19;5059296;28;20069;-59
2022/05/07 06:19:07;;;;;;;24.00;21.40;;;;;;;16.76;100.00;96801.84;5055696;28;20100;-59
2022/05/07 06:21:35;;;;;;;24.70;20.40;;;;;;;16.95;100.00;96798.72;5061222;28;20064;-54
2022/05/07 06:29:34;;;;;;;19.27;17.27;;;;;;;16.21;100.00;96797.38;5080997;28;20075;-60
2022/05/07 06:32:02;;;;;;;19.42;17.33;;;;;;;16.08;100.00;96798.75;5072738;28;20537;-59
2022/05/07 06:34:31;;;;;;;20.10;17.40;;;;;;;16.37;100.00;96790.16;5058733;28;20076;-59
2022/05/07 06:36:59;;;;;;;20.38;18.20;;;;;;;16.11;100.00;96794.94;5072143;28;20095;-60
2022/05/07 06:39:27;;;;;;;20.98;18.58;;;;;;;16.12;100.00;96801.91;5063106;28;20090;-58
2022/05/07 06:41:57;;;;;;;22.73;20.27;;;;;;;16.22;100.00;96802.53;5059951;28;20080;-57
2022/05/07 06:44:25;;;;;;;25.15;20.98;;;;;;;16.20;100.00;96809.84;5069313;28;20486;-58
2022/05/07 06:46:56;;;;;;;22.50;20.15;;;;;;;16.53;100.00;96807.06;5065417;28;20064;-58
2022/05/07 06:49:24;;;;;;;23.48;20.77;;;;;;;16.49;100.00;96803.94;5058215;28;20087;-60
2022/05/07 06:51:52;;;;;;;22.45;20.05;;;;;;;16.92;100.00;96800.91;5063498;28;20527;-59
2022/05/07 06:54:21;;;;;;;23.77;20.60;;;;;;;16.68;100.00;96805.31;5058849;28;20467;-60
2022/05/07 06:56:49;;;;;;;23.55;19.08;;;;;;;16.49;100.00;96811.91;5061992;28;20063;-59
2022/05/07 06:59:20;;;;;;;21.02;18.83;;;;;;;16.51;100.00;96809.06;5067902;28;20076;-61
2022/05/07 07:01:49;;;;;;;22.02;19.05;;;;;;;16.68;100.00;96813.31;5054809;28;20061;-61
2022/05/07 07:04:17;;;;;;;22.23;19.83;;;;;;;16.52;100.00;96810.75;5072156;28;20084;-61
2022/05/07 07:06:45;;;;;;;23.00;19.33;;;;;;;16.49;100.00;96813.75;5070218;28;20466;-60
2022/05/07 07:09:14;;;;;;;21.15;18.67;;;;;;;16.56;100.00;96814.72;5051589;28;20064;-59
2022/05/07 07:11:42;;;;;;;19.75;17.73;;;;;;;16.57;100.00;96808.38;5066141;28;20059;-60
2022/05/07 07:14:10;;;;;;;20.70;18.50;;;;;;;16.79;100.00;96812.97;5070907;28;20623;-58
2022/05/07 07:16:40;;;;;;;20.15;18.05;;;;;;;16.87;100.00;96816.59;5058687;28;20560;-58
2022/05/07 07:19:09;;;;;;;20.03;17.93;;;;;;;17.01;100.00;96810.50;5057343;28;20464;-59
2022/05/07 07:21:37;;;;;;;21.65;18.38;;;;;;;16.68;100.00;96815.97;5058678;28;20074;-59
2022/05/07 07:24:06;;;;;;;20.58;18.30;;;;;;;16.83;100.00;96818.78;5070927;28;20068;-60
2022/05/07 07:26:34;;;;;;;20.40;18.23;;;;;;;16.66;100.00;96811.84;5070139;28;20063;-60
2022/05/07 07:29:02;;;;;;;20.90;18.58;;;;;;;16.31;100.00;96814.81;5076963;28;20521;-59
2022/05/07 07:31:31;;;;;;;21.13;18.75;;;;;;;16.26;100.00;96816.31;5064141;28;20480;-59
2022/05/07 07:34:02;;;;;;;20.00;17.90;;;;;;;16.06;100.00;96815.88;5058985;28;20095;-59
2022/05/07 07:36:30;;;;;;;;;;;;;;;16.17;100.00;96815.50;5063186;28;20616;-57
2022/05/07 07:38:59;;;;;;;21.25;18.95;;;;;;;16.58;100.00;96818.84;5055971;28;19956;-59
2022/05/07 07:41:28;;;;;;;22.57;19.97;;;;;;;16.49;100.00;96817.25;5063760;28;20060;-59
2022/05/07 07:43:56;;;;;;;22.50;19.48;;;;;;;16.59;100.00;96811.72;5067919;28;20067;-59
2022/05/07 07:49:11;;;;;;;20.17;18.02;;;;;;;16.61;100.00;96815.00;5065778;28;20100;-58
2022/05/07 07:51:40;;;;;;;21.77;19.47;;;;;;;16.63;100.00;96818.34;5063621;28;20071;-58
2022/05/07 07:54:08;;;;;;;22.33;19.88;;;;;;;16.64;100.00;96820.00;5061048;28;20068;-59
2022/05/07 07:56:36;;;;;;;22.70;19.48;;;;;;;16.66;100.00;96817.19;5080050;28;20075;-59
2022/05/07 07:59:05;;;;;;;23.13;20.63;;;;;;;16.37;100.00;96829.25;5067359;28;20082;-58
2022/05/07 08:01:33;;;;;;;22.42;20.02;;;;;;;16.24;100.00;96827.16;5055530;28;20076;-59
2022/05/07 08:04:04;;;;;;;23.30;20.20;;;;;;;15.99;100.00;96825.53;5065565;28;20455;-58
2022/05/07 08:06:34;;;;;;;23.85;20.95;;;;;;;16.36;100.00;96827.59;5061133;28;20060;-60
2022/05/07 08:11:49;;;;;;;23.65;21.15;;;;;;;16.14;100.00;96829.19;5065058;28;20060;-59
2022/05/07 08:14:17;;;;;;;23.63;21.23;;;;;;;16.02;100.00;96833.19;5054673;28;20088;-60
2022/05/07 08:16:46;;;;;;;24.45;20.63;;;;;;;16.29;100.00;96832.78;5062390;28;20075;-59
2022/05/07 08:19:14;;;;;;;23.85;20.05;;;;;;;16.33;100.00;96834.09;5057117;28;20084;-56
2022/05/07 08:21:44;;;;;;;22.60;19.90;;;;;;;16.06;100.00;96832.66;5065346;28;20064;-60
2022/05/07 08:24:12;;;;;;;23.27;20.77;;;;;;;15.98;100.00;96832.69;5060624;28;20073;-59
2022/05/07 08:26:41;;;;;;;21.35;19.15;;;;;;;16.21;100.00;96835.47;5056434;28;20064;-59
2022/05/07 08:29:09;;;;;;;22.77;20.33;;;;;;;16.11;100.00;96837.50;5073709;28;20080;-59
2022/05/07 08:31:37;;;;;;;21.98;19.35;;;;;;;15.69;100.00;96837.69;5061855;28;20152;-59
2022/05/07 08:34:06;;;;;;;21.58;19.35;;;;;;;15.81;100.00;96839.88;5060552;28;20064;-59
2022/05/07 08:36:34;;;;;;;23.05;20.65;;;;;;;15.93;100.00;96843.00;5069076;28;20075;-59
2022/05/07 08:39:04;;;;;;;23.73;21.15;;;;;;;15.91;100.00;96845.00;5075180;28;20073;-59
2022/05/07 08:41:32;;;;;;;25.03;21.10;;;;;;;15.62;100.00;96837.50;5075963;28;20080;-59
2022/05/07 08:44:00;;;;;;;25.38;22.42;;;;;;;15.60;100.00;96847.50;5072692;28;20087;-58
2022/05/07 08:46:28;;;;;;;24.50;21.88;;;;;;;16.01;100.00;96848.31;5059891;28;20068;-58
2022/05/07 08:48:57;;;;;;;24.70;22.10;;;;;;;16.09;100.00;96847.47;5054962;28;20515;-57
2022/05/07 08:51:26;;;;;;;23.98;21.45;;;;;;;15.57;100.00;96850.47;5060272;28;20154;-56
2022/05/07 08:53:54;;;;;;;29.92;20.80;;;;;;;15.61;100.00;96855.28;5054448;28;20068;-58
2022/05/07 08:56:25;;;;;;;21.70;18.80;;;;;;;15.50;100.00;96860.13;5058820;28;20072;-59
2022/05/07 08:58:54;;;;;;;;;;;;;;;15.31;100.00;96856.78;5066281;28;20391;-58
2022/05/07 09:01:23;;;;;;;21.67;19.05;;;;;;;15.19;100.00;96858.91;5057623;28;19956;-59
2022/05/07 09:03:52;;;;;;;23.40;20.85;;;;;;;15.17;100.00;96868.91;5063173;28;20522;-59
2022/05/07 09:06:22;;;;;;;22.80;20.02;;;;;;;15.22;100.00;96860.41;5055457;28;20064;-60
2022/05/07 09:08:51;;;;;;;24.30;21.70;;;;;;;15.14;100.00;96865.69;5063932;28;20474;-59
2022/05/07 09:11:20;;;;;;;25.20;21.73;;;;;;;15.35;100.00;96866.09;5058803;28;20465;-60
2022/05/07 09:14:00;;;;;;;25.40;22.10;;;;;;;15.24;100.00;96871.69;5061925;28;20053;-60
2022/05/07 09:16:37;;;;;;;25.20;22.38;;;;;;;15.56;100.00;96860.28;5049867;28;20085;-60
2022/05/07 09:19:06;;;;;;;27.77;22.40;;;;;;;15.59;100.00;96859.13;5073384;28;20068;-59
2022/05/07 09:21:35;;;;;;;24.50;21.75;;;;;;;15.87;100.00;96862.31;5063320;28;20079;-59
2022/05/07 09:24:06;;;;;;;24.65;21.95;;;;;;;15.96;100.00;96863.94;5062257;28;20079;-60
2022/05/07 09:26:38;;;;;;;24.23;21.27;;;;;;;15.95;100.00;96861.47;5061016;28;20462;-59
2022/05/07 09:29:11;;;;;;;23.50;21.08;;;;;;;15.87;100.00;96859.66;5057807;28;20068;-60
2022/05/07 09:31:42;;;;;;;21.98;19.08;;;;;;;15.97;100.00;96859.47;5053509;28;20060;-59
2022/05/07 09:36:59;;;;;;;24.40;20.23;;;;;;;15.82;100.00;96859.31;5074665;28;20531;-59
2022/05/07 09:39:34;;;;;;;23.92;21.33;;;;;;;16.11;100.00;96859.59;5071560;28;20056;-60
2022/05/07 09:42:03;;;;;;;24.67;21.98;;;;;;;16.11;100.00;96864.09;5063085;28;20072;-59
2022/05/07 09:44:33;;;;;;;22.77;20.17;;;;;;;16.38;100.00;96847.72;5068033;28;20087;-60
2022/05/07 09:47:01;;;;;;;21.52;19.23;;;;;;;16.17;100.00;96854.59;5062289;28;20060;-58
2022/05/07 09:49:33;;;;;;;22.92;20.42;;;;;;;16.18;100.00;96856.28;5055878;28;20463;-58
2022/05/07 09:52:04;;;;;;;24.67;21.02;;;;;;;16.34;100.00;96864.19;5062796;28;20077;-57
2022/05/07 09:57:34;;;;;;;20.35;18.25;;;;;;;16.46;100.00;96851.38;5062483;28;20060;-59
2022/05/07 10:00:06;;;;;;;19.63;17.63;;;;;;;16.52;100.00;96851.50;5068694;28;20056;-58
2022/05/07 10:02:56;;;;;;;19.77;17.73;;;;;;;16.45;100.00;96847.03;5069404;28;20474;-60
2022/05/07 10:05:44;;;;;;;19.02;17.05;;;;;;;16.85;100.00;96851.38;5052191;28;20068;-60
2022/05/07 10:08:34;;;;;;;19.63;17.63;;;;;;;16.83;100.00;96851.56;5062248;28;20071;-60
2022/05/07 10:11:03;;;;;;;17.83;15.75;;;;;;;16.90;100.00;96846.38;5061163;28;20662;-60
2022/05/07 10:13:32;;;;;;;18.08;16.27;;;;;;;17.24;100.00;96840.69;5052223;28;20076;-59
2022/05/07 10:16:03;;;;;;;17.70;15.90;;;;;;;17.18;100.00;96844.03;5061785;28;20482;-59
2022/05/07 10:18:38;;;;;;;17.70;16.00;;;;;;;17.14;100.00;96837.41;5056741;28;20072;-59
2022/05/07 10:21:13;;;;;;;17.35;15.52;;;;;;;17.64;100.00;96829.88;5054498;28;20079;-58
2022/05/07 10:23:52;;;;;;;17.92;16.10;;;;;;;18.07;100.00;96841.69;5058651;28;20065;-60
2022/05/07 10:26:22;;;;;;;18.67;16.77;;;;;;;18.42;100.00;96834.78;5057214;28;20068;-60
2022/05/07 10:28:51;;;;;;;19.50;17.35;;;;;;;18.36;100.00;96830.19;5061880;28;20060;-58
2022/05/07 10:31:23;;;;;;;16.55;14.88;;;;;;;17.84;100.00;96833.72;5054733;28;20080;-57
2022/05/07 10:33:53;;;;;;;18.38;16.42;;;;;;;17.56;100.00;96830.78;5068789;28;20072;-60
2022/05/07 10:36:21;;;;;;;17.48;15.88;;;;;;;17.26;100.00;96827.97;5059184;28;20083;-59
2022/05/07 10:38:50;;;;;;;16.45;14.85;;;;;;;16.67;100.00;96838.28;5060043;28;20064;-59
2022/05/07 10:41:24;;;;;;;13.05;11.75;;;;;;;16.06;100.00;96835.31;5057669;28;20076;-60
2022/05/07 10:44:05;;;;;;;12.90;11.65;;;;;;;16.59;100.00;96844.50;5056912;28;20075;-59
2022/05/07 10:46:44;;;;;;;13.75;12.35;;;;;;;17.14;100.00;96837.41;5065563;28;20459;-60
2022/05/07 10:49:14;;;;;;;11.52;10.38;;;;;;;17.25;100.00;96836.16;5055584;28;20080;-60
2022/05/07 10:51:50;;;;;;;13.40;11.13;;;;;;;17.33;100.00;96830.78;5054699;28;20608;-59
2022/05/07 10:54:21;;;;;;;11.73;10.52;;;;;;;18.11;100.00;96829.63;5059026;28;20464;-60
2022/05/07 10:56:52;;;;;;;12.27;11.07;;;;;;;17.90;100.00;96825.00;5062230;28;20099;-57
2022/05/07 10:59:22;;;;;;;11.43;10.43;;;;;;;18.06;100.00;96825.84;5079385;28;20083;-58
2022/05/07 11:01:52;;;;;;;9.80;8.90;;;;;;;17.99;100.00;96825.72;5061132;28;20071;-59
2022/05/07 11:04:22;;;;;;;;;;;;;;;17.83;100.00;96817.91;5054694;28;20080;-60
2022/05/07 11:06:52;;;;;;;8.73;7.93;;;;;;;17.90;100.00;96825.00;5057718;28;19966;-59
2022/05/07 11:09:21;;;;;;;8.77;7.88;;;;;;;18.22;100.00;96828.34;5067242;28;20068;-59
2022/05/07 11:11:52;;;;;;;8.43;7.67;;;;;;;18.63;100.00;96825.19;5066957;28;20060;-60
2022/05/07 11:14:23;;;;;;;8.75;7.95;;;;;;;18.73;100.00;96817.75;5066166;28;20064;-59
2022/05/07 11:16:53;;;;;;;8.20;7.40;;;;;;;19.17;100.00;96812.28;5068722;28;20087;-59
2022/05/07 11:19:27;;;;;;;8.40;7.60;;;;;;;19.19;100.00;96815.59;5062228;28;20076;-56
2022/05/07 11:21:56;;;;;;;8.55;7.75;;;;;;;19.24;100.00;96803.53;5070908;28;20088;-59
2022/05/07 11:24:26;;;;;;;8.93;8.13;;;;;;;19.33;100.00;96803.19;5062298;28;20084;-59
2022/05/07 11:26:55;;;;;;;8.77;7.97;;;;;;;18.80;100.00;96807.16;5070206;28;20068;-60
2022/05/07 11:29:24;;;;;;;9.70;8.73;;;;;;;19.33;100.00;96799.69;5055273;28;20064;-54
2022/05/07 11:31:58;;;;;;;9.70;8.80;;;;;;;19.89;100.00;96792.59;5058909;28;20477;-61
2022/05/07 11:34:31;;;;;;;8.90;8.10;;;;;;;19.31;100.00;96797.22;5066563;28;20705;-59
2022/05/07 11:37:16;;;;;;;8.85;8.05;;;;;;;20.09;100.00;96787.34;5058382;28;20103;-58
2022/05/07 11:39:52;;;;;;;9.13;8.32;;;;;;;19.78;100.00;96794.94;5058308;28;20631;-59
2022/05/07 11:42:31;;;;;;;9.30;8.50;;;;;;;19.45;100.00;96793.63;5050751;28;20068;-60
2022/05/07 11:45:25;;;;;;;8.98;8.18;;;;;;;18.98;100.00;96795.00;5057604;28;20219;-59
2022/05/07 11:47:59;;;;;;;8.90;7.97;;;;;;;19.96;100.00;96789.97;5056856;28;20130;-59